Time;durP1;ratioP1;P1;durP2;ratioP2;P2;SDS_P1;SDS_P2;PMS_P1;PMS_P2;Temp;Humidity;BMP_temperature;BMP_pressure;BME280_temperature;BME280_humidity;BME280_pressure;Samples;Min_cycle;Max_cycle;Signal;HPM_P1;HPM_P2
2021/05/08 00:01:09;;;;;;;3.13;2.83;;;4.00;85.80;;;;;;5035631;28;20194;-69
2021/05/08 00:03:35;;;;;;;3.40;2.90;;;3.90;86.10;;;;;;5006616;28;20223;-69
2021/05/08 00:06:02;;;;;;;2.93;2.73;;;3.80;85.90;;;;;;4997861;28;20247;-70
2021/05/08 00:08:28;;;;;;;4.07;3.27;;;3.80;86.90;;;;;;5023359;28;20195;-70
2021/05/08 00:10:54;;;;;;;3.10;2.83;;;3.70;87.40;;;;;;5038075;28;20274;-70
2021/05/08 00:13:20;;;;;;;3.10;2.80;;;3.60;87.00;;;;;;5036580;28;20468;-71
2021/05/08 00:15:46;;;;;;;3.63;2.77;;;3.50;87.80;;;;;;5029418;28;20272;-70
2021/05/08 00:18:11;;;;;;;4.63;3.33;;;3.60;89.40;;;;;;5035512;28;20225;-70
2021/05/08 00:20:37;;;;;;;3.07;2.83;;;3.60;88.90;;;;;;5035510;28;20510;-70
2021/05/08 00:23:02;;;;;;;3.13;2.80;;;3.60;88.40;;;;;;5033778;28;20579;-70
2021/05/08 00:25:28;;;;;;;3.00;2.80;;;3.50;89.30;;;;;;5038474;28;20205;-70
2021/05/08 00:27:54;;;;;;;2.83;2.60;;;3.40;89.80;;;;;;5018512;28;20190;-70
2021/05/08 00:30:20;;;;;;;3.30;3.00;;;3.40;90.20;;;;;;5032024;28;20186;-69
2021/05/08 00:32:46;;;;;;;3.33;3.03;;;3.30;90.40;;;;;;5031018;28;20290;-69
2021/05/08 00:35:11;;;;;;;2.93;2.67;;;3.20;90.60;;;;;;5035670;28;20214;-69
2021/05/08 00:37:37;;;;;;;3.27;2.97;;;3.20;90.60;;;;;;5035308;28;20191;-69
2021/05/08 00:40:04;;;;;;;5.73;4.10;;;3.10;91.00;;;;;;5030122;28;20526;-69
2021/05/08 00:42:30;;;;;;;6.23;3.93;;;3.20;91.20;;;;;;5032101;28;20239;-69
2021/05/08 00:44:55;;;;;;;4.90;3.53;;;3.30;91.30;;;;;;5035859;28;20233;-69
2021/05/08 00:47:21;;;;;;;4.90;4.33;;;3.30;90.70;;;;;;5035309;28;20210;-70
2021/05/08 00:49:47;;;;;;;4.50;3.80;;;3.20;90.40;;;;;;5036093;28;20191;-69
2021/05/08 00:52:15;;;;;;;4.87;3.50;;;3.20;90.80;;;;;;5003417;28;20849;-72
2021/05/08 00:54:41;;;;;;;4.70;4.00;;;3.20;90.80;;;;;;4974685;28;20231;-69
2021/05/08 00:57:07;;;;;;;4.63;3.70;;;3.20;91.00;;;;;;4977155;28;20204;-70
2021/05/08 00:59:33;;;;;;;5.27;3.70;;;3.00;91.10;;;;;;4976726;28;20197;-71
2021/05/08 01:01:59;;;;;;;4.17;3.50;;;3.00;91.20;;;;;;4991722;28;20227;-70
2021/05/08 01:04:25;;;;;;;3.87;3.57;;;2.90;91.60;;;;;;4958629;28;20317;-69
2021/05/08 01:06:52;;;;;;;4.53;3.87;;;2.90;91.70;;;;;;4976546;28;20242;-69
2021/05/08 01:09:18;;;;;;;4.50;3.40;;;2.90;91.90;;;;;;4961154;28;20235;-69
2021/05/08 01:11:43;;;;;;;3.60;3.30;;;2.90;92.20;;;;;;4976848;28;20224;-70
2021/05/08 01:14:09;;;;;;;9.43;3.60;;;2.80;92.40;;;;;;4976818;28;20213;-69
2021/05/08 01:16:35;;;;;;;5.13;3.87;;;2.80;92.80;;;;;;4963668;28;20264;-70
2021/05/08 01:19:01;;;;;;;5.10;4.30;;;2.70;93.00;;;;;;4983376;28;20212;-70
2021/05/08 01:21:27;;;;;;;4.30;3.37;;;2.60;93.20;;;;;;4970332;28;20700;-70
2021/05/08 01:23:53;;;;;;;3.57;3.27;;;2.60;93.70;;;;;;4981095;28;20203;-69
2021/05/08 01:26:19;;;;;;;3.57;3.27;;;2.60;93.60;;;;;;5003887;28;20865;-70
2021/05/08 01:28:46;;;;;;;3.93;3.50;;;2.60;93.60;;;;;;5033626;28;20218;-70
2021/05/08 01:31:13;;;;;;;3.80;3.07;;;2.50;93.50;;;;;;5008507;28;20195;-69
2021/05/08 01:33:43;;;;;;;3.30;3.00;;;2.50;93.80;;;;;;5023545;28;20190;-69
2021/05/08 01:36:11;;;;;;;3.33;3.03;;;2.50;93.80;;;;;;5015425;28;20281;-69
2021/05/08 01:39:00;;;;;;;4.50;3.20;;;2.40;93.80;;;;;;5004980;28;20661;-70
2021/05/08 01:41:26;;;;;;;3.57;3.27;;;2.40;93.90;;;;;;5002574;28;20190;-70
2021/05/08 01:43:52;;;;;;;3.57;3.27;;;2.40;94.10;;;;;;5007978;28;20197;-69
2021/05/08 01:46:17;;;;;;;4.60;3.73;;;2.40;94.30;;;;;;5035349;28;20262;-69
2021/05/08 01:48:43;;;;;;;4.27;3.83;;;2.40;94.30;;;;;;5039561;28;20207;-69
2021/05/08 01:51:09;;;;;;;4.40;3.20;;;2.40;94.00;;;;;;5035072;28;20669;-70
2021/05/08 01:53:34;;;;;;;3.07;2.77;;;2.30;94.20;;;;;;5017171;28;20198;-71
2021/05/08 01:56:00;;;;;;;4.73;3.50;;;2.30;94.30;;;;;;5040591;28;20217;-69
2021/05/08 01:58:26;;;;;;;3.43;3.13;;;2.30;94.60;;;;;;5037202;28;20202;-70
2021/05/08 02:00:52;;;;;;;3.60;3.30;;;2.30;94.70;;;;;;5034211;28;20197;-69
2021/05/08 02:03:17;;;;;;;3.87;3.53;;;2.30;94.70;;;;;;5001424;28;20218;-70
2021/05/08 02:05:46;;;;;;;5.87;3.87;;;2.30;94.90;;;;;;5036068;28;20212;-69
2021/05/08 02:08:13;;;;;;;3.40;3.10;;;2.40;95.30;;;;;;5034932;28;20226;-70
2021/05/08 02:10:41;;;;;;;5.17;3.57;;;2.30;95.10;;;;;;5006454;28;20195;-69
2021/05/08 02:13:09;;;;;;;3.43;3.13;;;2.30;95.10;;;;;;5034991;28;20270;-70
2021/05/08 02:15:35;;;;;;;4.63;3.43;;;2.30;95.00;;;;;;5004532;28;20195;-69
2021/05/08 02:18:01;;;;;;;3.83;3.53;;;2.40;95.00;;;;;;5038522;28;20634;-69
2021/05/08 02:20:36;;;;;;;4.03;3.63;;;2.40;95.00;;;;;;5033535;28;20190;-69
2021/05/08 02:23:04;;;;;;;3.57;3.20;;;2.30;94.90;;;;;;5032264;28;20237;-70
2021/05/08 02:25:30;;;;;;;3.73;3.40;;;2.30;95.00;;;;;;5029800;28;20194;-69
2021/05/08 02:27:56;;;;;;;6.17;4.13;;;2.30;95.00;;;;;;5037180;28;20634;-69
2021/05/08 02:30:25;;;;;;;3.57;3.27;;;2.30;94.80;;;;;;5033903;28;20854;-70
2021/05/08 02:32:51;;;;;;;4.07;3.57;;;2.20;94.70;;;;;;5035578;28;20225;-70
2021/05/08 02:35:18;;;;;;;3.40;3.10;;;2.20;94.60;;;;;;5007553;28;20186;-70
2021/05/08 02:37:44;;;;;;;4.00;3.60;;;2.10;94.80;;;;;;5039108;28;20290;-69
2021/05/08 02:40:13;;;;;;;4.70;3.40;;;2.10;95.20;;;;;;5038637;28;20286;-70
2021/05/08 02:42:39;;;;;;;3.97;2.93;;;2.10;94.90;;;;;;5037407;28;20308;-69
2021/05/08 02:45:07;;;;;;;4.00;3.60;;;2.10;95.40;;;;;;5020432;28;20245;-69
2021/05/08 02:47:33;;;;;;;5.03;3.97;;;2.00;95.40;;;;;;5035173;28;20210;-70
2021/05/08 02:49:58;;;;;;;3.07;2.77;;;2.00;95.40;;;;;;5036695;28;20196;-70
2021/05/08 02:52:24;;;;;;;3.73;3.43;;;1.90;95.50;;;;;;5040474;28;20630;-69
2021/05/08 02:54:50;;;;;;;3.73;3.33;;;1.90;95.90;;;;;;5038131;28;20194;-69
2021/05/08 02:57:16;;;;;;;3.93;3.60;;;1.90;96.00;;;;;;5034558;28;20286;-69
2021/05/08 02:59:43;;;;;;;3.27;2.97;;;1.90;96.00;;;;;;5037551;28;20208;-69
2021/05/08 03:02:09;;;;;;;4.77;3.27;;;1.80;96.20;;;;;;5021879;28;20279;-69
2021/05/08 03:04:35;;;;;;;3.20;2.90;;;1.80;95.80;;;;;;5033688;28;20233;-69
2021/05/08 03:07:04;;;;;;;5.77;3.00;;;1.80;96.00;;;;;;5037733;28;20662;-69
2021/05/08 03:09:30;;;;;;;4.17;3.00;;;1.80;96.10;;;;;;5031269;28;20210;-69
2021/05/08 03:11:57;;;;;;;4.53;3.70;;;1.70;95.90;;;;;;5005573;28;20198;-70
2021/05/08 03:14:23;;;;;;;3.83;2.90;;;1.70;96.20;;;;;;5033987;28;20195;-70
2021/05/08 03:16:48;;;;;;;4.70;3.23;;;1.70;96.30;;;;;;5034785;28;20252;-69
2021/05/08 03:19:14;;;;;;;4.30;3.40;;;1.70;96.00;;;;;;5006104;28;20201;-69
2021/05/08 03:21:39;;;;;;;4.10;2.97;;;1.70;96.30;;;;;;5033742;28;20667;-70
2021/05/08 03:24:05;;;;;;;3.83;3.30;;;1.60;96.30;;;;;;5026016;28;20202;-69
2021/05/08 03:26:32;;;;;;;4.03;3.63;;;1.60;96.50;;;;;;5018226;28;20571;-69
2021/05/08 03:28:58;;;;;;;4.33;3.57;;;1.60;96.50;;;;;;5015791;28;20188;-71
2021/05/08 03:31:24;;;;;;;3.57;3.27;;;1.60;96.50;;;;;;5034096;28;20194;-70
2021/05/08 03:33:50;;;;;;;3.50;2.73;;;1.60;96.90;;;;;;5038240;28;20288;-70
2021/05/08 03:36:15;;;;;;;4.63;3.47;;;1.80;96.90;;;;;;5034780;28;20187;-69
2021/05/08 03:38:41;;;;;;;3.80;3.40;;;1.60;96.60;;;;;;5036672;28;20202;-69
2021/05/08 03:41:07;;;;;;;4.03;3.60;;;1.70;96.80;;;;;;5031866;28;20503;-72
2021/05/08 03:43:33;;;;;;;4.50;4.10;;;1.50;96.80;;;;;;5034790;28;20214;-70
2021/05/08 03:45:58;;;;;;;4.00;3.07;;;1.50;96.70;;;;;;5014487;28;20194;-69
2021/05/08 03:48:25;;;;;;;5.50;3.40;;;1.50;96.60;;;;;;5039060;28;20195;-69
2021/05/08 03:50:52;;;;;;;3.90;3.50;;;1.50;96.80;;;;;;5034489;28;20214;-69
2021/05/08 03:53:20;;;;;;;3.93;3.50;;;1.50;96.80;;;;;;5033616;28;20201;-69
2021/05/08 03:55:46;;;;;;;4.50;3.47;;;1.50;96.80;;;;;;5035476;28;20731;-69
2021/05/08 03:58:11;;;;;;;3.67;3.20;;;1.50;96.80;;;;;;5036675;28;20190;-69
2021/05/08 04:00:37;;;;;;;4.53;3.73;;;1.50;96.90;;;;;;5035848;28;20206;-69
2021/05/08 04:03:03;;;;;;;3.53;3.23;;;1.50;97.40;;;;;;5038245;28;20202;-69
2021/05/08 04:05:29;;;;;;;4.13;3.70;;;1.60;97.30;;;;;;5001022;28;20328;-69
2021/05/08 04:07:55;;;;;;;3.60;3.30;;;1.60;97.60;;;;;;5030263;28;20235;-69
2021/05/08 04:10:20;;;;;;;3.73;3.43;;;1.60;98.00;;;;;;5034058;28;20211;-70
2021/05/08 04:12:46;;;;;;;4.50;3.57;;;1.80;97.80;;;;;;5039964;28;20194;-69
2021/05/08 04:15:12;;;;;;;5.87;3.93;;;1.80;97.00;;;;;;5029942;28;20270;-70
2021/05/08 04:17:37;;;;;;;4.23;3.30;;;1.80;96.90;;;;;;5036144;28;20190;-69
2021/05/08 04:20:04;;;;;;;4.43;3.63;;;1.80;96.80;;;;;;5036321;28;20270;-69
2021/05/08 04:22:30;;;;;;;3.97;3.63;;;1.80;96.60;;;;;;5038609;28;20542;-69
2021/05/08 04:24:55;;;;;;;3.73;3.43;;;1.80;96.70;;;;;;5033682;28;20213;-70
2021/05/08 04:27:21;;;;;;;4.13;3.67;;;1.80;96.60;;;;;;5031170;28;20646;-69
2021/05/08 04:29:47;;;;;;;6.43;4.17;;;1.90;96.70;;;;;;5034204;28;20264;-69
2021/05/08 04:32:12;;;;;;;3.80;3.50;;;2.10;96.70;;;;;;5034279;28;20200;-69
2021/05/08 04:34:38;;;;;;;3.87;3.57;;;2.00;96.90;;;;;;5032931;28;20191;-69
2021/05/08 04:37:04;;;;;;;4.17;3.80;;;2.00;96.90;;;;;;5005681;28;20282;-70
2021/05/08 04:39:29;;;;;;;3.80;3.50;;;2.10;97.10;;;;;;5034369;28;20274;-69
2021/05/08 04:41:55;;;;;;;4.10;3.70;;;2.20;96.90;;;;;;5030993;28;20257;-69
2021/05/08 04:44:20;;;;;;;4.67;3.50;;;2.30;96.60;;;;;;5037229;28;20234;-68
2021/05/08 04:46:48;;;;;;;4.13;3.67;;;2.40;96.30;;;;;;5037334;28;20271;-69
2021/05/08 04:49:14;;;;;;;4.30;3.90;;;2.50;96.50;;;;;;5039427;28;20198;-69
2021/05/08 04:51:40;;;;;;;4.30;3.50;;;2.60;96.30;;;;;;5038416;28;20601;-69
2021/05/08 04:54:05;;;;;;;3.97;3.60;;;2.70;95.70;;;;;;5040428;28;20182;-69
2021/05/08 04:56:31;;;;;;;4.47;3.63;;;2.90;95.60;;;;;;5012653;28;20640;-69
2021/05/08 04:58:56;;;;;;;4.30;3.63;;;3.00;95.00;;;;;;5039557;28;20261;-69
2021/05/08 05:01:22;;;;;;;4.17;3.43;;;4.30;95.30;;;;;;5035359;28;20265;-69
2021/05/08 05:03:48;;;;;;;7.20;3.83;;;3.20;94.10;;;;;;5021086;28;20250;-69
2021/05/08 05:06:13;;;;;;;6.47;4.23;;;3.40;93.50;;;;;;5041173;28;20294;-69
2021/05/08 05:08:39;;;;;;;4.57;4.07;;;3.50;93.70;;;;;;5020514;28;20191;-69
2021/05/08 05:11:04;;;;;;;4.67;4.10;;;3.70;93.70;;;;;;5039448;28;20190;-70
2021/05/08 05:13:30;;;;;;;3.87;3.47;;;4.40;92.90;;;;;;5041637;28;20234;-69
2021/05/08 05:15:56;;;;;;;4.50;3.57;;;4.00;92.60;;;;;;5035370;28;20545;-69
2021/05/08 05:18:21;;;;;;;3.90;3.57;;;4.20;91.90;;;;;;5036572;28;20277;-69
2021/05/08 05:20:47;;;;;;;5.17;4.63;;;4.40;91.00;;;;;;5025133;28;20638;-70
2021/05/08 05:23:13;;;;;;;4.67;3.97;;;4.60;89.50;;;;;;5039219;28;20222;-70
2021/05/08 05:25:39;;;;;;;5.00;4.40;;;4.90;87.40;;;;;;5035567;28;20195;-69
2021/05/08 05:28:21;;;;;;;6.17;4.40;;;4.90;84.90;;;;;;5018581;28;20190;-69
2021/05/08 05:30:47;;;;;;;5.47;4.97;;;5.00;83.00;;;;;;5037735;28;20252;-70
2021/05/08 05:33:13;;;;;;;5.57;5.03;;;5.20;81.00;;;;;;5035997;28;20192;-69
2021/05/08 05:35:38;;;;;;;5.90;5.20;;;5.20;78.30;;;;;;5037252;28;20257;-69
2021/05/08 05:38:04;;;;;;;5.57;4.87;;;5.40;77.40;;;;;;5037673;28;20266;-71
2021/05/08 05:40:30;;;;;;;6.93;5.80;;;5.50;77.40;;;;;;5035544;28;20216;-70
2021/05/08 05:42:56;;;;;;;4.87;4.47;;;5.80;74.40;;;;;;5023783;28;20209;-69
2021/05/08 05:45:22;;;;;;;5.47;4.90;;;5.90;71.90;;;;;;5018072;28;20692;-70
2021/05/08 05:47:58;;;;;;;5.43;4.93;;;6.00;72.50;;;;;;5035986;28;20195;-70
2021/05/08 05:50:24;;;;;;;5.10;4.57;;;6.30;72.80;;;;;;5017137;28;20637;-70
2021/05/08 05:52:52;;;;;;;5.37;4.87;;;6.40;72.70;;;;;;5039032;28;20583;-70
2021/05/08 05:55:18;;;;;;;6.33;5.20;;;6.70;69.60;;;;;;5034869;22;20809;-70
2021/05/08 05:57:44;;;;;;;6.07;4.73;;;6.90;70.00;;;;;;5021309;28;20238;-69
2021/05/08 06:00:10;;;;;;;4.97;4.47;;;7.20;68.70;;;;;;5003794;28;20241;-70
2021/05/08 06:02:35;;;;;;;5.73;4.80;;;7.40;66.30;;;;;;5021200;28;20267;-69
2021/05/08 06:05:01;;;;;;;6.50;4.93;;;7.60;65.10;;;;;;5022221;28;20235;-70
2021/05/08 06:07:27;;;;;;;5.50;5.00;;;7.60;65.50;;;;;;5025203;28;20923;-70
2021/05/08 06:09:52;;;;;;;4.93;4.53;;;7.60;64.90;;;;;;5022994;28;20195;-71
2021/05/08 06:12:18;;;;;;;5.00;4.50;;;7.70;66.10;;;;;;5022543;28;20224;-71
2021/05/08 06:14:43;;;;;;;7.10;5.17;;;7.90;65.20;;;;;;5023756;23;20318;-70
2021/05/08 06:17:09;;;;;;;5.57;4.93;;;8.10;62.80;;;;;;5037594;28;20206;-70
2021/05/08 06:19:34;;;;;;;5.17;4.77;;;8.20;63.40;;;;;;5019595;28;20554;-70
2021/05/08 06:22:00;;;;;;;5.53;5.00;;;8.50;62.70;;;;;;5032954;28;20207;-70
2021/05/08 06:24:26;;;;;;;6.00;4.60;;;8.60;61.20;;;;;;5039369;28;20187;-70
2021/05/08 06:26:51;;;;;;;5.50;4.90;;;8.60;60.20;;;;;;5024309;28;20194;-70
2021/05/08 06:29:17;;;;;;;6.57;4.70;;;8.40;57.20;;;;;;5058209;22;20234;-70
2021/05/08 06:31:42;;;;;;;6.03;4.77;;;8.50;57.60;;;;;;5041120;28;20662;-69
2021/05/08 06:34:08;;;;;;;8.13;4.97;;;8.50;59.10;;;;;;5056613;28;20213;-71
2021/05/08 06:36:33;;;;;;;6.23;5.00;;;9.00;57.50;;;;;;5018750;23;20234;-71
2021/05/08 06:38:59;;;;;;;5.30;4.70;;;9.20;56.20;;;;;;5000571;28;20682;-69
2021/05/08 06:41:25;;;;;;;5.50;5.00;;;9.40;55.40;;;;;;5015122;28;20211;-70
2021/05/08 06:43:50;;;;;;;15.87;5.90;;;9.80;52.60;;;;;;5015349;23;20319;-70
2021/05/08 06:46:16;;;;;;;5.37;4.87;;;9.70;52.80;;;;;;5073024;28;20197;-70
2021/05/08 06:48:41;;;;;;;5.80;5.10;;;10.00;52.90;;;;;;5076204;28;20248;-71
2021/05/08 06:51:08;;;;;;;5.30;4.60;;;10.20;50.00;;;;;;5081460;28;20247;-70
2021/05/08 06:53:35;;;;;;;5.30;4.80;;;10.30;49.50;;;;;;5082728;28;20210;-70
2021/05/08 06:56:01;;;;;;;5.37;4.73;;;10.50;49.50;;;;;;5079488;28;20219;-70
2021/05/08 06:58:26;;;;;;;5.60;4.77;;;10.60;49.00;;;;;;5085791;28;20192;-70
2021/05/08 07:00:52;;;;;;;5.50;4.40;;;10.50;46.70;;;;;;5074111;28;20201;-70
2021/05/08 07:03:18;;;;;;;5.33;4.87;;;10.50;46.70;;;;;;5090432;28;21166;-70
2021/05/08 07:05:43;;;;;;;5.63;5.07;;;10.30;47.40;;;;;;5075464;28;20200;-69
2021/05/08 07:08:10;;;;;;;4.70;4.30;;;10.30;49.50;;;;;;5071915;28;20193;-70
2021/05/08 07:10:47;;;;;;;4.97;4.57;;;10.30;48.30;;;;;;5054312;28;20215;-70
2021/05/08 07:13:13;;;;;;;6.33;5.17;;;10.10;46.50;;;;;;5068876;28;20182;-71
2021/05/08 07:15:39;;;;;;;5.53;4.97;;;10.10;48.00;;;;;;5077153;22;20247;-70
2021/05/08 07:18:07;;;;;;;6.00;4.83;;;10.20;46.40;;;;;;5076885;23;20284;-70
2021/05/08 07:20:34;;;;;;;5.30;4.80;;;10.30;47.90;;;;;;5068083;28;20188;-70
2021/05/08 07:23:00;;;;;;;4.73;4.30;;;10.40;46.00;;;;;;5058911;23;20253;-71
2021/05/08 07:25:27;;;;;;;4.90;4.07;;;10.60;46.80;;;;;;5032212;28;20202;-70
2021/05/08 07:27:53;;;;;;;5.50;4.50;;;11.00;45.50;;;;;;5051690;28;20201;-70
2021/05/08 07:30:19;;;;;;;4.87;4.37;;;10.80;45.00;;;;;;5063307;23;20230;-70
2021/05/08 07:32:45;;;;;;;7.03;4.47;;;10.80;44.90;;;;;;5069055;28;20207;-70
2021/05/08 07:35:11;;;;;;;5.40;4.90;;;11.80;46.50;;;;;;5052053;28;20283;-71
2021/05/08 07:37:37;;;;;;;5.70;4.20;;;11.20;46.20;;;;;;5059131;28;20655;-70
2021/05/08 07:40:04;;;;;;;4.60;4.20;;;11.50;43.60;;;;;;5055522;23;20264;-70
2021/05/08 07:42:30;;;;;;;4.07;3.77;;;11.60;44.50;;;;;;5070261;28;20230;-70
2021/05/08 07:44:55;;;;;;;4.47;4.07;;;12.00;43.60;;;;;;5047269;23;20332;-70
2021/05/08 07:47:21;;;;;;;4.43;4.03;;;12.10;42.70;;;;;;5076674;23;20269;-70
2021/05/08 07:49:47;;;;;;;4.90;4.40;;;12.10;43.30;;;;;;5075136;28;20193;-70
2021/05/08 07:52:12;;;;;;;4.67;4.27;;;11.80;44.30;;;;;;5069667;28;20193;-71
2021/05/08 07:54:38;;;;;;;5.00;4.50;;;11.80;43.80;;;;;;5080396;23;20233;-70
2021/05/08 07:57:04;;;;;;;5.90;5.13;;;11.90;42.30;;;;;;5081724;22;20320;-71
2021/05/08 07:59:29;;;;;;;5.30;4.68;;;11.60;43.60;;;;;;5051460;28;20891;-68
2021/05/08 08:01:55;;;;;;;4.83;4.43;;;11.80;43.40;;;;;;5040683;28;20196;-69
2021/05/08 08:04:21;;;;;;;4.53;4.13;;;12.90;42.50;;;;;;5063718;28;20210;-68
2021/05/08 08:06:46;;;;;;;4.37;3.97;;;13.00;42.80;;;;;;5046178;28;20221;-69
2021/05/08 08:09:12;;;;;;;4.70;3.80;;;13.40;40.30;;;;;;5064298;28;20721;-69
2021/05/08 08:11:38;;;;;;;3.63;3.33;;;13.70;40.60;;;;;;5064822;28;20272;-69
2021/05/08 08:14:04;;;;;;;5.27;4.60;;;13.80;39.50;;;;;;5066493;28;20182;-68
2021/05/08 08:16:30;;;;;;;4.17;3.80;;;14.00;39.20;;;;;;5070031;28;20221;-70
2021/05/08 08:18:56;;;;;;;4.93;3.43;;;13.60;38.70;;;;;;5069661;28;20193;-71
2021/05/08 08:21:22;;;;;;;4.50;3.67;;;13.40;40.40;;;;;;5065321;28;20245;-71
2021/05/08 08:23:48;;;;;;;3.90;3.53;;;13.50;39.60;;;;;;5056397;28;20217;-71
2021/05/08 08:26:13;;;;;;;4.57;3.97;;;13.70;39.30;;;;;;5053871;28;20197;-71
2021/05/08 08:28:39;;;;;;;4.23;3.83;;;14.00;39.50;;;;;;5072778;28;20204;-71
2021/05/08 08:31:05;;;;;;;3.97;3.57;;;14.20;37.70;;;;;;5074575;28;20666;-71
2021/05/08 08:33:30;;;;;;;4.13;3.73;;;14.40;38.40;;;;;;5074744;28;20702;-72
2021/05/08 08:35:56;;;;;;;5.43;3.83;;;14.50;37.30;;;;;;5075620;28;20231;-70
2021/05/08 08:38:22;;;;;;;4.50;3.70;;;14.40;36.70;;;;;;5070486;28;20219;-70
2021/05/08 08:40:48;;;;;;;5.23;3.57;;;14.40;37.50;;;;;;5071205;28;20542;-68
2021/05/08 08:43:13;;;;;;;4.30;3.73;;;14.30;37.60;;;;;;5059766;28;20839;-69
2021/05/08 08:45:40;;;;;;;4.20;3.83;;;14.30;36.60;;;;;;5072175;28;20195;-69
2021/05/08 08:48:06;;;;;;;5.80;3.37;;;14.60;36.80;;;;;;5072096;28;20186;-69
2021/05/08 08:50:36;;;;;;;3.43;3.13;;;14.80;37.60;;;;;;5069564;28;20189;-69
2021/05/08 08:53:13;;;;;;;3.83;3.40;;;14.90;35.90;;;;;;5070973;28;20188;-69
2021/05/08 08:55:43;;;;;;;4.57;4.17;;;15.20;36.90;;;;;;5074355;28;20257;-68
2021/05/08 08:58:11;;;;;;;3.60;3.20;;;15.50;36.20;;;;;;5054164;28;21094;-69
2021/05/08 09:00:37;;;;;;;5.30;3.70;;;15.60;35.70;;;;;;5064468;28;20202;-69
2021/05/08 09:03:03;;;;;;;3.70;3.40;;;15.60;34.70;;;;;;5049539;28;20225;-71
2021/05/08 09:05:29;;;;;;;4.23;3.60;;;15.40;33.50;;;;;;5060408;28;22128;-70
2021/05/08 09:08:05;;;;;;;3.93;3.53;;;15.50;35.70;;;;;;5068483;28;20193;-69
2021/05/08 09:10:31;;;;;;;4.60;3.17;;;15.80;33.30;;;;;;5043657;28;20216;-70
2021/05/08 09:12:59;;;;;;;5.57;3.67;;;15.90;33.40;;;;;;5071327;28;20225;-70
2021/05/08 09:15:45;;;;;;;4.10;3.23;;;15.70;33.30;;;;;;5064915;28;20189;-70
2021/05/08 09:18:31;;;;;;;4.97;3.10;;;15.70;34.50;;;;;;5070141;28;20188;-69
2021/05/08 09:20:57;;;;;;;3.23;2.77;;;15.90;32.80;;;;;;5069977;28;20215;-69
2021/05/08 09:23:37;;;;;;;3.60;3.00;;;15.70;32.30;;;;;;5068249;28;20209;-69
2021/05/08 09:26:11;;;;;;;3.23;2.63;;;15.70;33.20;;;;;;5053894;28;20196;-70
2021/05/08 09:28:38;;;;;;;4.43;3.00;;;15.90;33.40;;;;;;5071965;28;20258;-70
2021/05/08 09:31:06;;;;;;;4.83;3.30;;;16.20;32.30;;;;;;5065469;28;20272;-70
2021/05/08 09:33:32;;;;;;;5.17;2.60;;;16.50;30.10;;;;;;5070562;28;20197;-69
2021/05/08 09:36:04;;;;;;;3.73;2.90;;;16.20;30.80;;;;;;5069216;28;20279;-69
2021/05/08 09:38:31;;;;;;;3.23;2.60;;;16.00;31.20;;;;;;5056471;28;20207;-69
2021/05/08 09:40:57;;;;;;;3.60;2.70;;;16.40;31.60;;;;;;5069008;28;20661;-69
2021/05/08 09:43:23;;;;;;;3.30;2.60;;;16.50;29.10;;;;;;5064777;28;20213;-70
2021/05/08 09:45:52;;;;;;;2.80;2.23;;;16.50;30.80;;;;;;5052067;28;20212;-70
2021/05/08 09:48:22;;;;;;;3.73;2.87;;;16.50;31.40;;;;;;5065829;28;20190;-69
2021/05/08 09:50:48;;;;;;;2.60;2.30;;;16.40;29.90;;;;;;5069798;28;20186;-69
2021/05/08 09:53:30;;;;;;;3.77;2.50;;;16.20;30.70;;;;;;5053194;28;20299;-66
2021/05/08 09:55:56;;;;;;;4.73;2.67;;;16.30;30.10;;;;;;5049215;28;20205;-66
2021/05/08 09:58:26;;;;;;;3.60;2.37;;;16.00;30.10;;;;;;5069155;28;20182;-67
2021/05/08 10:00:53;;;;;;;2.83;2.13;;;15.90;32.10;;;;;;5064910;28;20194;-67
2021/05/08 10:03:20;;;;;;;3.93;2.43;;;16.40;30.70;;;;;;5050824;28;20803;-66
2021/05/08 10:05:57;;;;;;;2.53;2.30;;;16.80;29.50;;;;;;5070968;28;20491;-67
2021/05/08 10:08:23;;;;;;;2.30;1.83;;;16.90;29.70;;;;;;5070406;28;20200;-67
2021/05/08 10:10:49;;;;;;;2.40;2.20;;;17.10;29.60;;;;;;5054074;28;20193;-67
2021/05/08 10:13:15;;;;;;;3.67;2.57;;;17.50;29.00;;;;;;5050014;28;20768;-67
2021/05/08 10:15:41;;;;;;;3.17;1.93;;;17.40;28.40;;;;;;5070499;28;20235;-66
2021/05/08 10:18:17;;;;;;;2.40;1.90;;;17.20;29.50;;;;;;5052475;28;20201;-67
2021/05/08 10:20:43;;;;;;;2.40;1.53;;;17.20;28.30;;;;;;5056549;28;20189;-66
2021/05/08 10:23:10;;;;;;;3.77;2.20;;;17.40;28.10;;;;;;5068511;28;20582;-67
2021/05/08 10:25:37;;;;;;;2.40;2.07;;;17.20;28.10;;;;;;5047920;28;20723;-71
2021/05/08 10:28:04;;;;;;;3.47;2.07;;;16.80;28.40;;;;;;5043758;28;20205;-68
2021/05/08 10:30:42;;;;;;;2.63;1.60;;;16.50;27.50;;;;;;5066905;28;20194;-68
2021/05/08 10:33:13;;;;;;;3.33;2.13;;;16.50;29.50;;;;;;5069104;28;20184;-67
2021/05/08 10:35:45;;;;;;;2.43;1.97;;;16.90;29.00;;;;;;5059336;28;20190;-70
2021/05/08 10:38:23;;;;;;;5.00;2.50;;;17.30;29.80;;;;;;5071206;28;20206;-70
2021/05/08 10:41:04;;;;;;;2.50;1.90;;;17.70;28.50;;;;;;5064026;28;20739;-70
2021/05/08 10:43:37;;;;;;;2.57;2.07;;;18.10;27.80;;;;;;5066729;28;20407;-68
2021/05/08 10:46:03;;;;;;;3.03;1.90;;;18.10;28.20;;;;;;5067450;28;20192;-68
2021/05/08 10:48:29;;;;;;;1.33;1.23;;;18.10;28.20;;;;;;5057050;28;20200;-72
2021/05/08 10:50:58;;;;;;;2.50;1.90;;;17.60;26.10;;;;;;5062247;22;20243;-66
2021/05/08 10:53:41;;;;;;;2.10;1.73;;;17.20;26.30;;;;;;5048608;28;20196;-66
2021/05/08 10:56:27;;;;;;;3.53;1.83;;;17.30;27.10;;;;;;5046240;28;20551;-66
2021/05/08 10:59:09;;;;;;;2.70;1.40;;;17.60;27.50;;;;;;5047839;28;20214;-70
2021/05/08 11:01:39;;;;;;;1.53;1.33;;;17.50;26.10;;;;;;5043637;28;20193;-68
2021/05/08 11:04:04;;;;;;;2.13;1.27;;;17.90;25.70;;;;;;5047490;28;20679;-75
2021/05/08 11:06:30;;;;;;;1.57;1.47;;;17.90;25.70;;;;;;5056053;23;20268;-77
2021/05/08 11:08:56;;;;;;;1.60;1.37;;;17.80;26.10;;;;;;5032662;28;20193;-71
2021/05/08 11:11:25;;;;;;;3.13;1.83;;;17.40;26.40;;;;;;5050920;28;20662;-72
2021/05/08 11:13:54;;;;;;;1.70;1.60;;;17.50;26.90;;;;;;5031996;28;20228;-71
2021/05/08 11:16:27;;;;;;;1.53;1.20;;;17.90;26.80;;;;;;5051058;28;20200;-72
2021/05/08 11:18:56;;;;;;;2.30;1.37;;;18.10;26.90;;;;;;5035337;28;20194;-72
2021/05/08 11:21:26;;;;;;;2.50;1.20;;;18.70;25.90;;;;;;5049141;23;20320;-71
2021/05/08 11:24:02;;;;;;;2.20;1.57;;;19.00;26.00;;;;;;5035897;28;20237;-72
2021/05/08 11:26:28;;;;;;;1.90;1.17;;;19.20;24.10;;;;;;5032677;28;20199;-71
2021/05/08 11:29:14;;;;;;;1.93;1.23;;;19.00;23.60;;;;;;5058831;23;21314;-72
2021/05/08 11:31:42;;;;;;;3.33;1.30;;;18.80;24.20;;;;;;5061170;22;20236;-71
2021/05/08 11:34:17;;;;;;;1.73;1.40;;;18.60;24.10;;;;;;5080752;28;20279;-71
2021/05/08 11:36:55;;;;;;;4.37;1.57;;;18.90;24.40;;;;;;5093954;22;20695;-72
2021/05/08 11:39:23;;;;;;;1.20;1.10;;;18.80;23.70;;;;;;5085092;28;20238;-72
2021/05/08 11:42:00;;;;;;;2.17;1.30;;;19.70;24.30;;;;;;5088602;28;20199;-74
2021/05/08 11:44:35;;;;;;;1.30;1.20;;;21.10;23.70;;;;;;5108802;22;20233;-74
2021/05/08 11:47:05;;;;;;;0.97;0.97;;;21.70;23.80;;;;;;5032039;28;20558;-72
2021/05/08 11:49:36;;;;;;;1.50;1.10;;;22.30;22.30;;;;;;5045066;28;20234;-72
2021/05/08 11:52:04;;;;;;;1.73;1.08;;;23.00;22.30;;;;;;5044732;28;20184;-72
2021/05/08 11:54:39;;;;;;;1.57;1.17;;;23.50;21.10;;;;;;5078394;23;20223;-72
2021/05/08 11:57:21;;;;;;;1.80;1.20;;;23.70;21.20;;;;;;5062125;28;20210;-72
2021/05/08 11:59:47;;;;;;;1.42;1.00;;;23.70;20.40;;;;;;5063441;28;20733;-72
2021/05/08 12:02:13;;;;;;;1.10;0.98;;;23.50;21.20;;;;;;5061822;28;20276;-71
2021/05/08 12:04:52;;;;;;;1.40;1.27;;;23.50;20.80;;;;;;5040892;28;20288;-72
2021/05/08 12:07:30;;;;;;;1.27;1.17;;;23.70;21.40;;;;;;5054119;28;20236;-73
2021/05/08 12:10:14;;;;;;;1.40;1.03;;;24.00;19.60;;;;;;5072145;28;20182;-74
2021/05/08 12:12:56;;;;;;;1.40;1.30;;;22.90;20.00;;;;;;5070761;28;20751;-71
2021/05/08 12:15:30;;;;;;;1.43;1.20;;;22.00;20.90;;;;;;5071954;28;20587;-73
2021/05/08 12:17:58;;;;;;;1.53;1.33;;;22.10;21.10;;;;;;5052872;28;20572;-72
2021/05/08 12:20:26;;;;;;;1.43;1.10;;;21.50;22.10;;;;;;5055310;28;20218;-72
2021/05/08 12:22:55;;;;;;;2.47;1.20;;;21.80;21.90;;;;;;5072125;28;20214;-71
2021/05/08 12:25:25;;;;;;;1.63;1.53;;;21.60;20.50;;;;;;5058574;28;20259;-72
2021/05/08 12:28:20;;;;;;;1.50;1.40;;;20.70;21.20;;;;;;5047556;28;20280;-72
2021/05/08 12:30:48;;;;;;;2.13;1.33;;;20.30;22.20;;;;;;5040568;28;20204;-71
2021/05/08 12:33:16;;;;;;;1.77;1.60;;;19.80;23.80;;;;;;5030899;28;20203;-72
2021/05/08 12:35:42;;;;;;;1.83;1.67;;;20.10;23.40;;;;;;5045424;28;20202;-72
2021/05/08 12:38:16;;;;;;;1.50;1.10;;;20.80;23.40;;;;;;5034562;28;20200;-72
2021/05/08 12:40:46;;;;;;;1.63;1.40;;;21.20;23.20;;;;;;5051471;28;20193;-71
2021/05/08 12:43:32;;;;;;;1.10;1.00;;;21.40;23.20;;;;;;5051546;28;20214;-72
2021/05/08 12:46:11;;;;;;;1.47;1.37;;;22.00;22.10;;;;;;5049714;28;20245;-72
2021/05/08 12:48:39;;;;;;;1.60;1.27;;;22.00;22.50;;;;;;5048155;28;20183;-72
2021/05/08 12:51:31;;;;;;;1.30;1.20;;;22.60;22.50;;;;;;5048617;28;20191;-72
2021/05/08 12:54:35;;;;;;;1.17;1.07;;;22.60;21.50;;;;;;5044933;28;20649;-72
2021/05/08 12:57:13;;;;;;;2.57;1.20;;;22.30;21.40;;;;;;5048303;28;20211;-73